sensor_id;sensor_type;location;lat;lon;timestamp;P1;durP1;ratioP1;P2;durP2;ratioP2
23336;SDS011;11840;45.414;12.372;2022-08-19T06:14:31;5.22;;;1.30;;
23336;SDS011;11840;45.414;12.372;2022-08-19T06:16:57;5.25;;;1.50;;
23336;SDS011;11840;45.414;12.372;2022-08-19T06:19:25;6.55;;;1.38;;
23336;SDS011;11840;45.414;12.372;2022-08-19T06:21:51;4.05;;;1.38;;
23336;SDS011;11840;45.414;12.372;2022-08-19T06:24:19;5.43;;;1.58;;
23336;SDS011;11840;45.414;12.372;2022-08-19T06:26:46;5.35;;;1.35;;
23336;SDS011;11840;45.414;12.372;2022-08-19T06:29:13;5.97;;;1.80;;
23336;SDS011;11840;45.414;12.372;2022-08-19T06:31:41;7.03;;;2.05;;
23336;SDS011;11840;45.414;12.372;2022-08-19T06:34:07;4.25;;;1.52;;
23336;SDS011;11840;45.414;12.372;2022-08-19T06:36:35;8.40;;;1.58;;
23336;SDS011;11840;45.414;12.372;2022-08-19T06:39:04;6.38;;;1.58;;
23336;SDS011;11840;45.414;12.372;2022-08-19T06:41:32;5.97;;;2.22;;
23336;SDS011;11840;45.414;12.372;2022-08-19T06:43:59;4.63;;;2.13;;
23336;SDS011;11840;45.414;12.372;2022-08-19T06:46:26;5.85;;;1.77;;
23336;SDS011;11840;45.414;12.372;2022-08-19T06:48:52;6.10;;;1.60;;
23336;SDS011;11840;45.414;12.372;2022-08-19T06:51:18;5.03;;;1.33;;
23336;SDS011;11840;45.414;12.372;2022-08-19T06:53:48;6.93;;;1.45;;
23336;SDS011;11840;45.414;12.372;2022-08-19T06:56:14;3.00;;;1.02;;
23336;SDS011;11840;45.414;12.372;2022-08-19T06:58:41;7.68;;;1.40;;
23336;SDS011;11840;45.414;12.372;2022-08-19T07:01:07;3.05;;;1.00;;
23336;SDS011;11840;45.414;12.372;2022-08-19T07:03:34;5.93;;;1.10;;
23336;SDS011;11840;45.414;12.372;2022-08-19T07:06:12;4.63;;;1.35;;
23336;SDS011;11840;45.414;12.372;2022-08-19T07:08:39;8.88;;;1.40;;
23336;SDS011;11840;45.414;12.372;2022-08-19T07:11:06;3.50;;;1.17;;
23336;SDS011;11840;45.414;12.372;2022-08-19T07:13:33;2.00;;;0.82;;
23336;SDS011;11840;45.414;12.372;2022-08-19T07:16:09;5.40;;;1.25;;
23336;SDS011;11840;45.414;12.372;2022-08-19T07:18:35;4.65;;;1.30;;
23336;SDS011;11840;45.414;12.372;2022-08-19T07:21:11;2.92;;;1.10;;
23336;SDS011;11840;45.414;12.372;2022-08-19T07:23:37;3.42;;;1.15;;
23336;SDS011;11840;45.414;12.372;2022-08-19T07:26:04;3.03;;;0.95;;
23336;SDS011;11840;45.414;12.372;2022-08-19T07:28:31;3.72;;;1.00;;
23336;SDS011;11840;45.414;12.372;2022-08-19T07:30:57;3.10;;;0.90;;
23336;SDS011;11840;45.414;12.372;2022-08-19T07:33:23;3.38;;;1.10;;
23336;SDS011;11840;45.414;12.372;2022-08-19T07:35:49;2.67;;;0.93;;
23336;SDS011;11840;45.414;12.372;2022-08-19T07:38:15;3.92;;;1.10;;
23336;SDS011;11840;45.414;12.372;2022-08-19T07:40:41;4.10;;;0.93;;
23336;SDS011;11840;45.414;12.372;2022-08-19T07:43:08;4.13;;;1.25;;
23336;SDS011;11840;45.414;12.372;2022-08-19T07:45:35;2.67;;;1.10;;
23336;SDS011;11840;45.414;12.372;2022-08-19T07:48:01;6.07;;;1.20;;
23336;SDS011;11840;45.414;12.372;2022-08-19T07:50:27;6.63;;;1.10;;
23336;SDS011;11840;45.414;12.372;2022-08-19T07:52:53;2.72;;;1.23;;
23336;SDS011;11840;45.414;12.372;2022-08-19T07:55:21;2.90;;;1.05;;
23336;SDS011;11840;45.414;12.372;2022-08-19T07:57:47;3.95;;;1.13;;
23336;SDS011;11840;45.414;12.372;2022-08-19T08:00:13;6.30;;;1.45;;
23336;SDS011;11840;45.414;12.372;2022-08-19T08:02:39;5.18;;;1.17;;
23336;SDS011;11840;45.414;12.372;2022-08-19T08:05:07;2.78;;;0.93;;
23336;SDS011;11840;45.414;12.372;2022-08-19T08:08:03;5.55;;;1.17;;
23336;SDS011;11840;45.414;12.372;2022-08-19T08:11:07;3.55;;;1.27;;
23336;SDS011;11840;45.414;12.372;2022-08-19T08:13:33;4.43;;;1.30;;
23336;SDS011;11840;45.414;12.372;2022-08-19T08:16:01;5.45;;;1.10;;
23336;SDS011;11840;45.414;12.372;2022-08-19T08:18:27;3.03;;;1.10;;
23336;SDS011;11840;45.414;12.372;2022-08-19T08:20:54;4.65;;;1.02;;
23336;SDS011;11840;45.414;12.372;2022-08-19T08:23:21;4.65;;;1.25;;
23336;SDS011;11840;45.414;12.372;2022-08-19T08:25:55;4.40;;;1.13;;
23336;SDS011;11840;45.414;12.372;2022-08-19T08:28:22;4.18;;;1.58;;
23336;SDS011;11840;45.414;12.372;2022-08-19T08:30:49;3.17;;;1.08;;
23336;SDS011;11840;45.414;12.372;2022-08-19T08:33:20;6.40;;;1.42;;
23336;SDS011;11840;45.414;12.372;2022-08-19T08:35:46;7.65;;;1.42;;
23336;SDS011;11840;45.414;12.372;2022-08-19T08:38:13;4.43;;;1.02;;
23336;SDS011;11840;45.414;12.372;2022-08-19T08:40:43;3.97;;;0.90;;
23336;SDS011;11840;45.414;12.372;2022-08-19T08:43:13;6.85;;;0.93;;
23336;SDS011;11840;45.414;12.372;2022-08-19T08:45:45;3.70;;;0.63;;
23336;SDS011;11840;45.414;12.372;2022-08-19T08:48:29;3.03;;;0.80;;
23336;SDS011;11840;45.414;12.372;2022-08-19T08:50:56;5.03;;;0.77;;
23336;SDS011;11840;45.414;12.372;2022-08-19T08:53:22;4.43;;;0.90;;
23336;SDS011;11840;45.414;12.372;2022-08-19T08:55:49;1.90;;;0.60;;
23336;SDS011;11840;45.414;12.372;2022-08-19T08:58:17;3.10;;;0.90;;
23336;SDS011;11840;45.414;12.372;2022-08-19T09:00:47;2.83;;;0.65;;
23336;SDS011;11840;45.414;12.372;2022-08-19T09:03:25;2.90;;;0.80;;
23336;SDS011;11840;45.414;12.372;2022-08-19T09:06:07;2.15;;;0.57;;
23336;SDS011;11840;45.414;12.372;2022-08-19T09:08:40;2.42;;;0.60;;
23336;SDS011;11840;45.414;12.372;2022-08-19T09:11:10;4.13;;;0.65;;
23336;SDS011;11840;45.414;12.372;2022-08-19T09:16:05;3.90;;;0.60;;
23336;SDS011;11840;45.414;12.372;2022-08-19T09:18:42;3.10;;;0.57;;
23336;SDS011;11840;45.414;12.372;2022-08-19T09:21:08;2.92;;;0.60;;
23336;SDS011;11840;45.414;12.372;2022-08-19T09:23:35;1.13;;;0.50;;
23336;SDS011;11840;45.414;12.372;2022-08-19T09:26:05;4.43;;;0.60;;
23336;SDS011;11840;45.414;12.372;2022-08-19T09:28:32;0.90;;;0.40;;
23336;SDS011;11840;45.414;12.372;2022-08-19T09:30:57;2.40;;;0.65;;
23336;SDS011;11840;45.414;12.372;2022-08-19T09:33:24;0.55;;;0.28;;
23336;SDS011;11840;45.414;12.372;2022-08-19T09:35:50;2.75;;;0.45;;
23336;SDS011;11840;45.414;12.372;2022-08-19T09:38:27;1.77;;;0.45;;
23336;SDS011;11840;45.414;12.372;2022-08-19T09:40:54;3.13;;;0.60;;
23336;SDS011;11840;45.414;12.372;2022-08-19T09:43:20;3.00;;;0.70;;
23336;SDS011;11840;45.414;12.372;2022-08-19T09:45:46;1.88;;;0.60;;
23336;SDS011;11840;45.414;12.372;2022-08-19T09:48:13;2.05;;;0.50;;
23336;SDS011;11840;45.414;12.372;2022-08-19T09:50:38;1.40;;;0.52;;
23336;SDS011;11840;45.414;12.372;2022-08-19T09:53:05;1.23;;;0.60;;
23336;SDS011;11840;45.414;12.372;2022-08-19T09:55:31;2.72;;;0.60;;
23336;SDS011;11840;45.414;12.372;2022-08-19T09:58:01;2.70;;;0.50;;
23336;SDS011;11840;45.414;12.372;2022-08-19T10:00:28;3.63;;;0.60;;
23336;SDS011;11840;45.414;12.372;2022-08-19T10:02:54;2.97;;;0.80;;
23336;SDS011;11840;45.414;12.372;2022-08-19T10:05:20;3.08;;;0.75;;
23336;SDS011;11840;45.414;12.372;2022-08-19T10:10:34;3.67;;;0.70;;
23336;SDS011;11840;45.414;12.372;2022-08-19T10:13:00;1.50;;;0.50;;
23336;SDS011;11840;45.414;12.372;2022-08-19T10:15:27;1.13;;;0.52;;
23336;SDS011;11840;45.414;12.372;2022-08-19T10:17:53;2.30;;;0.60;;
23336;SDS011;11840;45.414;12.372;2022-08-19T10:20:20;5.68;;;1.00;;
23336;SDS011;11840;45.414;12.372;2022-08-19T10:22:45;2.60;;;0.70;;
23336;SDS011;11840;45.414;12.372;2022-08-19T10:25:12;4.10;;;0.95;;
23336;SDS011;11840;45.414;12.372;2022-08-19T10:27:40;2.58;;;0.90;;
23336;SDS011;11840;45.414;12.372;2022-08-19T10:30:06;4.40;;;1.10;;
23336;SDS011;11840;45.414;12.372;2022-08-19T10:32:32;3.45;;;0.70;;
23336;SDS011;11840;45.414;12.372;2022-08-19T18:59:14;4.80;;;1.45;;
23336;SDS011;11840;45.414;12.372;2022-08-19T19:01:41;4.28;;;1.50;;
23336;SDS011;11840;45.414;12.372;2022-08-19T19:04:16;5.63;;;1.50;;
23336;SDS011;11840;45.414;12.372;2022-08-19T19:06:43;6.20;;;2.20;;
23336;SDS011;11840;45.414;12.372;2022-08-19T19:09:10;6.97;;;2.10;;
23336;SDS011;11840;45.414;12.372;2022-08-19T19:11:38;4.88;;;2.08;;
23336;SDS011;11840;45.414;12.372;2022-08-19T19:14:06;5.75;;;2.05;;
23336;SDS011;11840;45.414;12.372;2022-08-19T19:16:37;4.45;;;1.92;;
23336;SDS011;11840;45.414;12.372;2022-08-19T19:19:04;3.78;;;1.80;;
23336;SDS011;11840;45.414;12.372;2022-08-19T19:21:35;5.35;;;1.80;;
23336;SDS011;11840;45.414;12.372;2022-08-19T19:24:01;3.33;;;2.00;;
23336;SDS011;11840;45.414;12.372;2022-08-19T19:26:27;8.55;;;1.63;;
23336;SDS011;11840;45.414;12.372;2022-08-19T19:28:53;4.57;;;1.80;;
23336;SDS011;11840;45.414;12.372;2022-08-19T19:31:21;6.28;;;1.80;;
23336;SDS011;11840;45.414;12.372;2022-08-19T19:33:48;4.72;;;1.58;;
23336;SDS011;11840;45.414;12.372;2022-08-19T19:36:14;4.25;;;2.08;;
23336;SDS011;11840;45.414;12.372;2022-08-19T19:38:41;5.82;;;1.67;;
23336;SDS011;11840;45.414;12.372;2022-08-19T19:41:11;6.35;;;1.60;;
23336;SDS011;11840;45.414;12.372;2022-08-19T19:43:38;4.30;;;1.80;;
23336;SDS011;11840;45.414;12.372;2022-08-19T19:46:04;3.33;;;1.45;;
23336;SDS011;11840;45.414;12.372;2022-08-19T19:48:29;5.18;;;1.95;;
23336;SDS011;11840;45.414;12.372;2022-08-19T19:50:56;5.35;;;1.55;;
23336;SDS011;11840;45.414;12.372;2022-08-19T19:53:25;4.68;;;1.90;;
23336;SDS011;11840;45.414;12.372;2022-08-19T19:55:53;3.58;;;1.80;;
23336;SDS011;11840;45.414;12.372;2022-08-19T19:58:28;5.80;;;1.80;;
23336;SDS011;11840;45.414;12.372;2022-08-19T20:00:54;5.78;;;2.47;;
23336;SDS011;11840;45.414;12.372;2022-08-19T20:03:21;3.60;;;1.90;;
23336;SDS011;11840;45.414;12.372;2022-08-19T20:05:47;5.50;;;2.13;;
23336;SDS011;11840;45.414;12.372;2022-08-19T20:08:13;2.85;;;2.05;;
23336;SDS011;11840;45.414;12.372;2022-08-19T20:11:02;3.75;;;1.85;;
23336;SDS011;11840;45.414;12.372;2022-08-19T20:13:28;6.05;;;2.13;;
23336;SDS011;11840;45.414;12.372;2022-08-19T20:15:54;4.65;;;2.22;;
23336;SDS011;11840;45.414;12.372;2022-08-19T20:18:21;5.90;;;2.63;;
23336;SDS011;11840;45.414;12.372;2022-08-19T20:20:46;3.58;;;2.00;;
23336;SDS011;11840;45.414;12.372;2022-08-19T20:23:18;5.57;;;2.65;;
23336;SDS011;11840;45.414;12.372;2022-08-19T20:25:43;3.47;;;2.03;;
23336;SDS011;11840;45.414;12.372;2022-08-19T20:28:10;5.47;;;2.22;;
23336;SDS011;11840;45.414;12.372;2022-08-19T20:30:37;8.18;;;2.60;;
23336;SDS011;11840;45.414;12.372;2022-08-19T20:33:04;3.67;;;2.22;;
23336;SDS011;11840;45.414;12.372;2022-08-19T20:35:34;6.68;;;3.05;;
23336;SDS011;11840;45.414;12.372;2022-08-19T20:38:00;6.25;;;2.80;;
23336;SDS011;11840;45.414;12.372;2022-08-19T20:40:26;7.57;;;3.20;;
23336;SDS011;11840;45.414;12.372;2022-08-19T20:42:52;6.00;;;3.10;;
23336;SDS011;11840;45.414;12.372;2022-08-19T20:45:19;3.95;;;2.33;;
23336;SDS011;11840;45.414;12.372;2022-08-19T20:47:46;4.95;;;3.08;;
23336;SDS011;11840;45.414;12.372;2022-08-19T20:50:14;4.80;;;2.97;;
23336;SDS011;11840;45.414;12.372;2022-08-19T20:52:43;6.00;;;2.60;;
23336;SDS011;11840;45.414;12.372;2022-08-19T20:55:09;5.47;;;2.65;;
23336;SDS011;11840;45.414;12.372;2022-08-19T20:57:36;7.18;;;2.78;;
